sensor_id;sensor_type;location;lat;lon;timestamp;pressure;altitude;pressure_sealevel;temperature;humidity
62051;BME280;48008;51.204;6.766;2022-09-20T00:01:28;101763.84;;;11.56;91.56
62051;BME280;48008;51.204;6.766;2022-09-20T00:03:59;101763.47;;;11.70;91.28
62051;BME280;48008;51.204;6.766;2022-09-20T00:06:28;101758.22;;;11.49;91.57
62051;BME280;48008;51.204;6.766;2022-09-20T00:08:57;101757.94;;;11.52;91.56
62051;BME280;48008;51.204;6.766;2022-09-20T00:11:27;101756.38;;;11.49;92.01
62051;BME280;48008;51.204;6.766;2022-09-20T00:13:55;101758.91;;;11.51;92.15
62051;BME280;48008;51.204;6.766;2022-09-20T00:16:26;101760.34;;;11.55;92.32
62051;BME280;48008;51.204;6.766;2022-09-20T00:18:56;101755.44;;;11.60;92.65
62051;BME280;48008;51.204;6.766;2022-09-20T00:21:25;101760.50;;;11.73;91.44
62051;BME280;48008;51.204;6.766;2022-09-20T00:23:53;101752.41;;;11.75;91.26
62051;BME280;48008;51.204;6.766;2022-09-20T00:26:20;101752.00;;;11.79;90.98
62051;BME280;48008;51.204;6.766;2022-09-20T00:28:47;101759.41;;;11.76;91.61
62051;BME280;48008;51.204;6.766;2022-09-20T00:31:14;101760.41;;;11.84;90.84
62051;BME280;48008;51.204;6.766;2022-09-20T00:33:41;101768.56;;;11.93;90.58
62051;BME280;48008;51.204;6.766;2022-09-20T00:36:28;101765.00;;;11.82;90.78
62051;BME280;48008;51.204;6.766;2022-09-20T00:38:56;101774.66;;;11.83;90.65
62051;BME280;48008;51.204;6.766;2022-09-20T00:41:24;101774.94;;;11.80;91.08
62051;BME280;48008;51.204;6.766;2022-09-20T00:43:51;101767.91;;;11.69;92.16
62051;BME280;48008;51.204;6.766;2022-09-20T00:46:25;101771.56;;;11.68;91.95
62051;BME280;48008;51.204;6.766;2022-09-20T00:48:58;101769.47;;;11.82;91.71
62051;BME280;48008;51.204;6.766;2022-09-20T00:51:32;101769.75;;;11.79;92.69
62051;BME280;48008;51.204;6.766;2022-09-20T00:54:01;101771.44;;;11.80;91.83
62051;BME280;48008;51.204;6.766;2022-09-20T00:56:34;101770.03;;;11.76;92.73
62051;BME280;48008;51.204;6.766;2022-09-20T00:59:10;101762.75;;;11.78;92.46
62051;BME280;48008;51.204;6.766;2022-09-20T01:01:42;101758.00;;;11.81;92.27
62051;BME280;48008;51.204;6.766;2022-09-20T01:04:10;101758.72;;;11.83;91.53
62051;BME280;48008;51.204;6.766;2022-09-20T01:06:42;101756.19;;;11.82;92.70
62051;BME280;48008;51.204;6.766;2022-09-20T01:09:11;101760.31;;;11.96;91.58
62051;BME280;48008;51.204;6.766;2022-09-20T01:11:38;101760.41;;;11.84;91.81
62051;BME280;48008;51.204;6.766;2022-09-20T01:14:05;101756.94;;;11.94;90.92
62051;BME280;48008;51.204;6.766;2022-09-20T01:16:32;101761.81;;;11.88;91.61
62051;BME280;48008;51.204;6.766;2022-09-20T01:19:04;101759.28;;;11.87;91.81
62051;BME280;48008;51.204;6.766;2022-09-20T01:21:34;101759.69;;;11.82;91.89
62051;BME280;48008;51.204;6.766;2022-09-20T01:24:18;101765.06;;;11.92;91.92
62051;BME280;48008;51.204;6.766;2022-09-20T01:27:14;101761.94;;;11.87;91.63
62051;BME280;48008;51.204;6.766;2022-09-20T01:30:04;101766.28;;;11.88;91.84
62051;BME280;48008;51.204;6.766;2022-09-20T01:32:54;101770.50;;;11.90;91.54
62051;BME280;48008;51.204;6.766;2022-09-20T01:35:24;101766.00;;;11.81;91.98
62051;BME280;48008;51.204;6.766;2022-09-20T01:41:07;101767.81;;;11.81;92.31
62051;BME280;48008;51.204;6.766;2022-09-20T01:44:11;101769.75;;;11.79;92.84
62051;BME280;48008;51.204;6.766;2022-09-20T01:46:41;101756.31;;;11.80;92.79
62051;BME280;48008;51.204;6.766;2022-09-20T01:49:34;101767.94;;;11.79;92.25
62051;BME280;48008;51.204;6.766;2022-09-20T01:52:30;101770.47;;;11.81;92.63
62051;BME280;48008;51.204;6.766;2022-09-20T02:04:36;101773.03;;;11.92;91.66
62051;BME280;48008;51.204;6.766;2022-09-20T02:13:07;101773.88;;;11.93;91.30
62051;BME280;48008;51.204;6.766;2022-09-20T02:21:29;101776.50;;;11.83;90.82
62051;BME280;48008;51.204;6.766;2022-09-20T02:30:33;101765.13;;;11.71;90.95
62051;BME280;48008;51.204;6.766;2022-09-20T02:36:36;101761.50;;;11.72;92.00
62051;BME280;48008;51.204;6.766;2022-09-20T02:39:30;101757.59;;;11.76;90.46
62051;BME280;48008;51.204;6.766;2022-09-20T02:42:10;101751.69;;;11.72;92.12
62051;BME280;48008;51.204;6.766;2022-09-20T02:47:46;101754.94;;;11.86;90.47
62051;BME280;48008;51.204;6.766;2022-09-20T02:56:42;101759.28;;;11.87;90.94
62051;BME280;48008;51.204;6.766;2022-09-20T02:59:43;101762.66;;;11.99;89.65
62051;BME280;48008;51.204;6.766;2022-09-20T03:08:13;101755.50;;;11.80;90.94
62051;BME280;48008;51.204;6.766;2022-09-20T03:11:26;101753.66;;;11.70;91.33
62051;BME280;48008;51.204;6.766;2022-09-20T03:14:05;101755.50;;;11.80;90.50
62051;BME280;48008;51.204;6.766;2022-09-20T03:22:04;101757.44;;;11.78;91.26
62051;BME280;48008;51.204;6.766;2022-09-20T03:36:51;101749.88;;;11.73;90.95
62051;BME280;48008;51.204;6.766;2022-09-20T03:42:28;101757.56;;;11.66;91.46
62051;BME280;48008;51.204;6.766;2022-09-20T03:45:27;101757.00;;;11.63;92.66
62051;BME280;48008;51.204;6.766;2022-09-20T03:50:57;101754.34;;;11.72;92.82
62051;BME280;48008;51.204;6.766;2022-09-20T03:54:02;101756.72;;;11.66;92.85
62051;BME280;48008;51.204;6.766;2022-09-20T03:56:59;101758.56;;;11.75;91.93
62051;BME280;48008;51.204;6.766;2022-09-20T03:59:53;101758.84;;;11.72;92.46
62051;BME280;48008;51.204;6.766;2022-09-20T04:02:51;101759.94;;;11.69;92.48
62051;BME280;48008;51.204;6.766;2022-09-20T04:05:32;101760.69;;;11.81;91.99
62051;BME280;48008;51.204;6.766;2022-09-20T04:11:00;101764.84;;;11.74;92.03
62051;BME280;48008;51.204;6.766;2022-09-20T04:13:43;101767.50;;;11.74;92.20
62051;BME280;48008;51.204;6.766;2022-09-20T04:16:41;101760.09;;;11.78;91.86
62051;BME280;48008;51.204;6.766;2022-09-20T04:19:28;101761.91;;;11.67;92.45
62051;BME280;48008;51.204;6.766;2022-09-20T04:21:59;101766.13;;;11.70;92.11
62051;BME280;48008;51.204;6.766;2022-09-20T04:24:56;101763.03;;;11.65;92.70
62051;BME280;48008;51.204;6.766;2022-09-20T04:27:31;101760.22;;;11.66;92.28
62051;BME280;48008;51.204;6.766;2022-09-20T04:30:22;101763.59;;;11.68;93.12
62051;BME280;48008;51.204;6.766;2022-09-20T04:33:02;101755.63;;;11.68;92.24
62051;BME280;48008;51.204;6.766;2022-09-20T04:38:48;101760.34;;;11.55;92.95
62051;BME280;48008;51.204;6.766;2022-09-20T04:44:42;101762.06;;;11.76;91.87
62051;BME280;48008;51.204;6.766;2022-09-20T04:50:41;101765.13;;;11.71;91.18
62051;BME280;48008;51.204;6.766;2022-09-20T04:56:19;101768.91;;;11.78;91.74
62051;BME280;48008;51.204;6.766;2022-09-20T04:59:04;101772.00;;;11.74;91.37
62051;BME280;48008;51.204;6.766;2022-09-20T05:02:09;101777.56;;;11.70;92.45
62051;BME280;48008;51.204;6.766;2022-09-20T05:05:01;101787.47;;;11.59;92.28
62051;BME280;48008;51.204;6.766;2022-09-20T05:10:36;101789.03;;;11.61;93.03
62051;BME280;48008;51.204;6.766;2022-09-20T05:19:30;101801.91;;;11.66;91.98
62051;BME280;48008;51.204;6.766;2022-09-20T05:22:11;101801.19;;;11.64;93.42
62051;BME280;48008;51.204;6.766;2022-09-20T05:25:13;101799.53;;;11.63;93.17
62051;BME280;48008;51.204;6.766;2022-09-20T05:27:54;101795.44;;;11.59;93.28
62051;BME280;48008;51.204;6.766;2022-09-20T05:36:12;101802.19;;;11.63;93.00
62051;BME280;48008;51.204;6.766;2022-09-20T05:41:32;101813.03;;;11.50;93.72
62051;BME280;48008;51.204;6.766;2022-09-20T05:44:14;101808.06;;;11.66;92.94
62051;BME280;48008;51.204;6.766;2022-09-20T05:47:06;101818.97;;;11.73;92.97
62051;BME280;48008;51.204;6.766;2022-09-20T05:50:34;101815.81;;;11.79;91.29
62051;BME280;48008;51.204;6.766;2022-09-20T05:52:53;101820.41;;;11.77;91.57
62051;BME280;48008;51.204;6.766;2022-09-20T05:55:47;101824.97;;;11.65;92.97
62051;BME280;48008;51.204;6.766;2022-09-20T05:58:42;101826.69;;;11.66;92.64
62051;BME280;48008;51.204;6.766;2022-09-20T06:01:18;101817.31;;;11.72;92.03
62051;BME280;48008;51.204;6.766;2022-09-20T06:03:55;101817.31;;;11.72;91.75
62051;BME280;48008;51.204;6.766;2022-09-20T06:06:50;101823.34;;;11.84;91.50
62051;BME280;48008;51.204;6.766;2022-09-20T06:09:54;101815.25;;;11.85;91.16
62051;BME280;48008;51.204;6.766;2022-09-20T06:13:03;101818.47;;;11.79;90.82
62051;BME280;48008;51.204;6.766;2022-09-20T06:15:41;101823.72;;;11.69;91.59
62051;BME280;48008;51.204;6.766;2022-09-20T06:24:00;101824.56;;;12.01;89.97
62051;BME280;48008;51.204;6.766;2022-09-20T06:26:33;101824.63;;;11.89;89.67
62051;BME280;48008;51.204;6.766;2022-09-20T06:29:03;101825.22;;;11.93;89.68
62051;BME280;48008;51.204;6.766;2022-09-20T06:31:32;101829.59;;;12.04;89.69
62051;BME280;48008;51.204;6.766;2022-09-20T06:34:03;101832.25;;;12.04;89.18
62051;BME280;48008;51.204;6.766;2022-09-20T06:36:31;101827.78;;;12.04;89.42
62051;BME280;48008;51.204;6.766;2022-09-20T06:42:02;101832.72;;;12.19;89.45
62051;BME280;48008;51.204;6.766;2022-09-20T06:44:29;101841.50;;;12.00;89.39
62051;BME280;48008;51.204;6.766;2022-09-20T06:46:56;101830.84;;;12.00;89.85
62051;BME280;48008;51.204;6.766;2022-09-20T06:49:23;101836.28;;;11.98;90.53
62051;BME280;48008;51.204;6.766;2022-09-20T06:51:53;101835.34;;;12.09;89.40
62051;BME280;48008;51.204;6.766;2022-09-20T06:54:21;101832.25;;;12.04;89.39
62051;BME280;48008;51.204;6.766;2022-09-20T06:56:49;101836.16;;;12.09;89.82
62051;BME280;48008;51.204;6.766;2022-09-20T06:59:16;101837.44;;;11.96;89.34
62051;BME280;48008;51.204;6.766;2022-09-20T07:01:43;101842.53;;;11.87;89.29
62051;BME280;48008;51.204;6.766;2022-09-20T07:04:10;101845.97;;;12.09;90.36
62051;BME280;48008;51.204;6.766;2022-09-20T07:06:36;101852.00;;;12.01;90.04
62051;BME280;48008;51.204;6.766;2022-09-20T07:09:03;101851.19;;;12.20;87.90
62051;BME280;48008;51.204;6.766;2022-09-20T07:11:31;101851.03;;;12.22;89.37
62051;BME280;48008;51.204;6.766;2022-09-20T07:14:01;101859.47;;;12.37;87.63
62051;BME280;48008;51.204;6.766;2022-09-20T07:16:28;101856.69;;;12.48;87.83
62051;BME280;48008;51.204;6.766;2022-09-20T07:18:56;101856.25;;;12.72;86.58
62051;BME280;48008;51.204;6.766;2022-09-20T07:21:23;101862.00;;;12.67;85.59
62051;BME280;48008;51.204;6.766;2022-09-20T07:23:49;101859.88;;;12.71;84.05
62051;BME280;48008;51.204;6.766;2022-09-20T07:26:21;101866.22;;;12.70;84.11
62051;BME280;48008;51.204;6.766;2022-09-20T07:28:49;101860.88;;;12.70;84.44
62051;BME280;48008;51.204;6.766;2022-09-20T07:31:17;101862.84;;;12.78;84.79
62051;BME280;48008;51.204;6.766;2022-09-20T07:33:45;101867.59;;;12.74;84.65
62051;BME280;48008;51.204;6.766;2022-09-20T07:36:12;101865.34;;;12.99;82.72
62051;BME280;48008;51.204;6.766;2022-09-20T07:38:40;101864.94;;;12.94;84.15
62051;BME280;48008;51.204;6.766;2022-09-20T07:41:08;101860.09;;;13.17;83.72
62051;BME280;48008;51.204;6.766;2022-09-20T07:43:35;101853.41;;;13.13;81.82
62051;BME280;48008;51.204;6.766;2022-09-20T07:46:02;101849.16;;;13.20;81.93
62051;BME280;48008;51.204;6.766;2022-09-20T07:48:31;101855.34;;;13.20;81.88
62051;BME280;48008;51.204;6.766;2022-09-20T07:51:02;101849.06;;;13.12;81.42
62051;BME280;48008;51.204;6.766;2022-09-20T07:53:32;101851.84;;;13.20;81.60
62051;BME280;48008;51.204;6.766;2022-09-20T07:56:05;101859.53;;;13.33;79.46
62051;BME280;48008;51.204;6.766;2022-09-20T07:58:33;101860.78;;;13.38;80.41
62051;BME280;48008;51.204;6.766;2022-09-20T08:01:03;101863.13;;;13.51;80.09
62051;BME280;48008;51.204;6.766;2022-09-20T08:03:31;101870.56;;;13.57;80.10
62051;BME280;48008;51.204;6.766;2022-09-20T08:06:05;101858.19;;;13.66;77.84
62051;BME280;48008;51.204;6.766;2022-09-20T08:08:34;101868.66;;;13.77;77.37
62051;BME280;48008;51.204;6.766;2022-09-20T08:11:08;101860.78;;;13.76;78.25
62051;BME280;48008;51.204;6.766;2022-09-20T08:13:38;101865.22;;;13.85;76.75
62051;BME280;48008;51.204;6.766;2022-09-20T08:16:26;101872.09;;;13.88;76.90
62051;BME280;48008;51.204;6.766;2022-09-20T08:18:56;101876.75;;;13.86;76.80
62051;BME280;48008;51.204;6.766;2022-09-20T08:21:27;101876.03;;;13.83;77.10
62051;BME280;48008;51.204;6.766;2022-09-20T08:23:57;101887.81;;;13.91;79.37
62051;BME280;48008;51.204;6.766;2022-09-20T08:26:26;101881.72;;;13.98;77.98
62051;BME280;48008;51.204;6.766;2022-09-20T08:28:55;101885.88;;;14.11;75.77
62051;BME280;48008;51.204;6.766;2022-09-20T08:31:25;101883.56;;;13.98;77.11
62051;BME280;48008;51.204;6.766;2022-09-20T08:33:52;101893.25;;;13.99;75.44
62051;BME280;48008;51.204;6.766;2022-09-20T08:36:22;101896.69;;;14.09;75.90
62051;BME280;48008;51.204;6.766;2022-09-20T08:38:51;101889.16;;;14.05;75.65
62051;BME280;48008;51.204;6.766;2022-09-20T08:41:49;101897.72;;;13.98;75.38
62051;BME280;48008;51.204;6.766;2022-09-20T08:47:07;101885.63;;;14.32;75.45
62051;BME280;48008;51.204;6.766;2022-09-20T08:49:42;101892.63;;;14.33;73.49
62051;BME280;48008;51.204;6.766;2022-09-20T08:52:15;101891.81;;;14.50;73.72
62051;BME280;48008;51.204;6.766;2022-09-20T08:54:43;101893.34;;;14.71;71.85
62051;BME280;48008;51.204;6.766;2022-09-20T08:57:15;101897.00;;;14.88;70.53
62051;BME280;48008;51.204;6.766;2022-09-20T08:59:42;101891.09;;;15.02;69.44
62051;BME280;48008;51.204;6.766;2022-09-20T09:02:19;101894.94;;;15.00;70.51
62051;BME280;48008;51.204;6.766;2022-09-20T09:04:47;101895.16;;;15.32;69.82
62051;BME280;48008;51.204;6.766;2022-09-20T09:07:17;101899.53;;;15.68;66.45
62051;BME280;48008;51.204;6.766;2022-09-20T09:09:49;101902.13;;;15.51;66.33
62051;BME280;48008;51.204;6.766;2022-09-20T09:12:22;101892.25;;;16.21;65.06
62051;BME280;48008;51.204;6.766;2022-09-20T09:14:51;101890.44;;;16.29;63.68
62051;BME280;48008;51.204;6.766;2022-09-20T09:17:25;101892.66;;;15.91;64.67
62051;BME280;48008;51.204;6.766;2022-09-20T09:19:56;101899.38;;;15.69;64.90
62051;BME280;48008;51.204;6.766;2022-09-20T09:22:30;101903.44;;;15.73;62.85
62051;BME280;48008;51.204;6.766;2022-09-20T09:27:54;101900.97;;;15.02;63.04
62051;BME280;48008;51.204;6.766;2022-09-20T09:30:27;101904.97;;;15.50;61.53
62051;BME280;48008;51.204;6.766;2022-09-20T09:36:06;101889.59;;;18.08;53.67
62051;BME280;48008;51.204;6.766;2022-09-20T09:38:36;101895.53;;;19.64;50.35
62051;BME280;48008;51.204;6.766;2022-09-20T09:41:05;101892.22;;;19.77;48.12
62051;BME280;48008;51.204;6.766;2022-09-20T09:43:35;101888.81;;;17.99;51.84
62051;BME280;48008;51.204;6.766;2022-09-20T09:46:20;101891.50;;;17.27;51.47
62051;BME280;48008;51.204;6.766;2022-09-20T09:51:38;101888.00;;;16.69;56.50
62051;BME280;48008;51.204;6.766;2022-09-20T09:54:14;101887.53;;;17.06;55.88
62051;BME280;48008;51.204;6.766;2022-09-20T09:59:54;101885.94;;;16.30;58.54
62051;BME280;48008;51.204;6.766;2022-09-20T10:06:25;101881.41;;;15.19;59.33
62051;BME280;48008;51.204;6.766;2022-09-20T10:09:04;101882.63;;;15.07;60.06
62051;BME280;48008;51.204;6.766;2022-09-20T10:17:10;101891.47;;;14.53;60.48
62051;BME280;48008;51.204;6.766;2022-09-20T10:23:07;101884.41;;;14.26;63.62
62051;BME280;48008;51.204;6.766;2022-09-20T10:29:07;101884.75;;;14.31;62.65
62051;BME280;48008;51.204;6.766;2022-09-20T10:31:51;101882.84;;;14.24;62.91
62051;BME280;48008;51.204;6.766;2022-09-20T10:49:19;101890.94;;;13.86;69.21
62051;BME280;48008;51.204;6.766;2022-09-20T10:55:12;101905.03;;;13.69;70.44
62051;BME280;48008;51.204;6.766;2022-09-20T10:58:07;101906.69;;;13.70;70.26
62051;BME280;48008;51.204;6.766;2022-09-20T11:01:22;101911.09;;;13.61;71.23
62051;BME280;48008;51.204;6.766;2022-09-20T11:03:59;101906.81;;;13.78;71.47
62051;BME280;48008;51.204;6.766;2022-09-20T11:09:36;101903.75;;;13.73;71.50
62051;BME280;48008;51.204;6.766;2022-09-20T11:12:14;101908.06;;;13.83;71.84
62051;BME280;48008;51.204;6.766;2022-09-20T11:14:48;101907.03;;;13.94;71.52
62051;BME280;48008;51.204;6.766;2022-09-20T11:17:26;101907.63;;;14.16;69.33
62051;BME280;48008;51.204;6.766;2022-09-20T11:20:02;101912.59;;;14.29;68.94
62051;BME280;48008;51.204;6.766;2022-09-20T11:22:41;101906.78;;;14.33;67.07
62051;BME280;48008;51.204;6.766;2022-09-20T11:25:17;101908.56;;;14.70;67.85
62051;BME280;48008;51.204;6.766;2022-09-20T11:27:53;101910.28;;;15.15;64.50
62051;BME280;48008;51.204;6.766;2022-09-20T11:30:22;101910.78;;;15.45;63.72
62051;BME280;48008;51.204;6.766;2022-09-20T11:33:13;101912.22;;;15.58;62.22
62051;BME280;48008;51.204;6.766;2022-09-20T11:35:48;101913.28;;;16.07;59.58
62051;BME280;48008;51.204;6.766;2022-09-20T11:41:07;101920.38;;;17.81;54.33
62051;BME280;48008;51.204;6.766;2022-09-20T11:43:38;101920.94;;;17.60;54.56
62051;BME280;48008;51.204;6.766;2022-09-20T11:46:18;101921.34;;;17.24;55.18
62051;BME280;48008;51.204;6.766;2022-09-20T11:48:51;101920.72;;;16.97;55.48
62051;BME280;48008;51.204;6.766;2022-09-20T11:57:20;101926.16;;;16.46;56.54
62051;BME280;48008;51.204;6.766;2022-09-20T11:59:53;101924.25;;;16.39;56.88
62051;BME280;48008;51.204;6.766;2022-09-20T12:02:45;101921.06;;;16.27;57.77
62051;BME280;48008;51.204;6.766;2022-09-20T12:05:26;101923.53;;;16.96;54.04
62051;BME280;48008;51.204;6.766;2022-09-20T12:07:57;101919.50;;;17.08;52.73
62051;BME280;48008;51.204;6.766;2022-09-20T12:10:28;101912.47;;;16.99;53.42
62051;BME280;48008;51.204;6.766;2022-09-20T12:13:00;101914.28;;;16.82;53.98
62051;BME280;48008;51.204;6.766;2022-09-20T12:15:31;101913.63;;;17.04;53.85
62051;BME280;48008;51.204;6.766;2022-09-20T12:18:05;101907.78;;;16.93;55.17
62051;BME280;48008;51.204;6.766;2022-09-20T12:28:59;101921.78;;;15.95;57.64
62051;BME280;48008;51.204;6.766;2022-09-20T12:39:36;101914.53;;;15.26;65.53
62051;BME280;48008;51.204;6.766;2022-09-20T12:42:23;101910.94;;;15.18;65.43
62051;BME280;48008;51.204;6.766;2022-09-20T12:45:04;101914.63;;;14.98;65.09
62051;BME280;48008;51.204;6.766;2022-09-20T12:47:35;101916.00;;;15.03;65.19
62051;BME280;48008;51.204;6.766;2022-09-20T12:50:11;101912.19;;;15.31;64.77
62051;BME280;48008;51.204;6.766;2022-09-20T12:53:02;101913.22;;;15.30;63.65
62051;BME280;48008;51.204;6.766;2022-09-20T12:55:52;101909.91;;;15.63;62.91
62051;BME280;48008;51.204;6.766;2022-09-20T13:04:51;101904.22;;;16.00;60.12
62051;BME280;48008;51.204;6.766;2022-09-20T13:07:42;101904.91;;;16.02;60.05
62051;BME280;48008;51.204;6.766;2022-09-20T13:10:19;101908.31;;;16.12;60.31
62051;BME280;48008;51.204;6.766;2022-09-20T13:12:53;101909.13;;;16.13;59.27
62051;BME280;48008;51.204;6.766;2022-09-20T13:15:21;101899.50;;;16.28;57.88
62051;BME280;48008;51.204;6.766;2022-09-20T13:17:51;101901.44;;;16.18;58.81
62051;BME280;48008;51.204;6.766;2022-09-20T13:20:23;101908.34;;;16.29;59.75
62051;BME280;48008;51.204;6.766;2022-09-20T13:22:52;101903.72;;;16.64;58.69
62051;BME280;48008;51.204;6.766;2022-09-20T13:25:22;101900.69;;;16.50;57.61
62051;BME280;48008;51.204;6.766;2022-09-20T13:27:56;101902.41;;;16.84;57.73
62051;BME280;48008;51.204;6.766;2022-09-20T13:30:28;101898.00;;;16.59;57.89
62051;BME280;48008;51.204;6.766;2022-09-20T13:33:16;101903.09;;;16.95;57.79
62051;BME280;48008;51.204;6.766;2022-09-20T13:35:48;101899.19;;;17.46;58.08
62051;BME280;48008;51.204;6.766;2022-09-20T13:38:17;101899.19;;;17.46;55.82
62051;BME280;48008;51.204;6.766;2022-09-20T13:40:48;101894.50;;;17.96;54.87
62051;BME280;48008;51.204;6.766;2022-09-20T13:43:24;101899.94;;;17.72;54.77
62051;BME280;48008;51.204;6.766;2022-09-20T13:45:55;101902.16;;;17.60;56.34
62051;BME280;48008;51.204;6.766;2022-09-20T13:48:24;101896.88;;;18.22;53.60
62051;BME280;48008;51.204;6.766;2022-09-20T13:50:52;101893.59;;;18.67;52.49
62051;BME280;48008;51.204;6.766;2022-09-20T13:53:21;101890.06;;;18.89;51.92
62051;BME280;48008;51.204;6.766;2022-09-20T13:56:13;101892.97;;;18.56;55.23
62051;BME280;48008;51.204;6.766;2022-09-20T13:58:41;101893.03;;;17.94;52.89
62051;BME280;48008;51.204;6.766;2022-09-20T14:01:21;101895.50;;;17.95;53.50
62051;BME280;48008;51.204;6.766;2022-09-20T14:03:48;101891.28;;;17.53;52.40
62051;BME280;48008;51.204;6.766;2022-09-20T14:06:15;101887.69;;;17.77;52.71
62051;BME280;48008;51.204;6.766;2022-09-20T14:08:45;101877.47;;;18.67;50.55
62051;BME280;48008;51.204;6.766;2022-09-20T14:11:15;101893.03;;;19.17;50.17
62051;BME280;48008;51.204;6.766;2022-09-20T14:13:48;101887.66;;;19.47;47.23
62051;BME280;48008;51.204;6.766;2022-09-20T14:16:16;101892.22;;;20.28;47.03
62051;BME280;48008;51.204;6.766;2022-09-20T14:18:45;101885.38;;;20.90;46.55
62051;BME280;48008;51.204;6.766;2022-09-20T14:21:19;101890.16;;;19.93;44.29
62051;BME280;48008;51.204;6.766;2022-09-20T14:23:50;101887.16;;;19.14;47.49
62051;BME280;48008;51.204;6.766;2022-09-20T14:28:55;101888.75;;;19.68;46.16
62051;BME280;48008;51.204;6.766;2022-09-20T14:31:31;101889.22;;;19.86;44.53
62051;BME280;48008;51.204;6.766;2022-09-20T14:34:02;101879.63;;;20.71;42.45
62051;BME280;48008;51.204;6.766;2022-09-20T14:36:30;101875.09;;;20.57;41.82
62051;BME280;48008;51.204;6.766;2022-09-20T14:39:00;101876.66;;;20.88;40.92
62051;BME280;48008;51.204;6.766;2022-09-20T14:41:33;101879.34;;;21.79;40.18
62051;BME280;48008;51.204;6.766;2022-09-20T14:44:02;101875.28;;;22.10;38.35
62051;BME280;48008;51.204;6.766;2022-09-20T14:46:32;101880.28;;;21.58;39.70
62051;BME280;48008;51.204;6.766;2022-09-20T14:49:31;101881.56;;;21.41;39.72
62051;BME280;48008;51.204;6.766;2022-09-20T14:51:47;101878.06;;;21.40;39.07
62051;BME280;48008;51.204;6.766;2022-09-20T14:54:24;101876.06;;;21.21;40.41
62051;BME280;48008;51.204;6.766;2022-09-20T14:56:53;101866.91;;;20.87;40.03
62051;BME280;48008;51.204;6.766;2022-09-20T14:59:26;101875.56;;;20.03;41.58
62051;BME280;48008;51.204;6.766;2022-09-20T15:01:56;101883.38;;;19.68;41.19
62051;BME280;48008;51.204;6.766;2022-09-20T15:04:25;101880.00;;;19.06;42.06
62051;BME280;48008;51.204;6.766;2022-09-20T15:06:54;101880.38;;;19.03;42.17
62051;BME280;48008;51.204;6.766;2022-09-20T15:09:21;101879.22;;;19.80;40.50
62051;BME280;48008;51.204;6.766;2022-09-20T15:12:12;101884.09;;;20.06;39.88
62051;BME280;48008;51.204;6.766;2022-09-20T15:14:40;101881.06;;;18.82;42.01
62051;BME280;48008;51.204;6.766;2022-09-20T15:17:22;101872.59;;;17.68;44.75
62051;BME280;48008;51.204;6.766;2022-09-20T15:19:49;101874.00;;;17.56;45.43
62051;BME280;48008;51.204;6.766;2022-09-20T15:22:16;101884.41;;;19.37;42.47
62051;BME280;48008;51.204;6.766;2022-09-20T15:24:43;101881.38;;;20.21;41.07
62051;BME280;48008;51.204;6.766;2022-09-20T15:27:10;101880.50;;;20.36;39.94
62051;BME280;48008;51.204;6.766;2022-09-20T15:29:37;101883.94;;;19.93;40.31
62051;BME280;48008;51.204;6.766;2022-09-20T15:32:04;101881.25;;;19.63;40.91
62051;BME280;48008;51.204;6.766;2022-09-20T15:34:33;101883.53;;;19.07;42.69
62051;BME280;48008;51.204;6.766;2022-09-20T15:36:59;101883.56;;;18.84;42.67
62051;BME280;48008;51.204;6.766;2022-09-20T15:39:26;101883.66;;;18.21;44.04
62051;BME280;48008;51.204;6.766;2022-09-20T15:41:53;101878.88;;;18.31;44.49
62051;BME280;48008;51.204;6.766;2022-09-20T15:44:20;101881.91;;;17.97;45.00
62051;BME280;48008;51.204;6.766;2022-09-20T15:46:49;101879.16;;;17.65;45.71
62051;BME280;48008;51.204;6.766;2022-09-20T15:49:16;101878.97;;;17.19;45.64
62051;BME280;48008;51.204;6.766;2022-09-20T15:51:42;101878.13;;;16.86;46.96
62051;BME280;48008;51.204;6.766;2022-09-20T15:54:11;101879.09;;;16.60;48.33
62051;BME280;48008;51.204;6.766;2022-09-20T15:56:39;101878.75;;;16.55;49.73
62051;BME280;48008;51.204;6.766;2022-09-20T15:59:08;101886.78;;;16.55;50.57
62051;BME280;48008;51.204;6.766;2022-09-20T16:01:38;101886.97;;;16.45;51.25
62051;BME280;48008;51.204;6.766;2022-09-20T16:04:07;101886.22;;;16.19;50.87
62051;BME280;48008;51.204;6.766;2022-09-20T16:06:37;101886.84;;;16.04;51.26
62051;BME280;48008;51.204;6.766;2022-09-20T16:09:04;101895.16;;;15.85;51.43
62051;BME280;48008;51.204;6.766;2022-09-20T16:11:31;101900.00;;;15.89;51.81
62051;BME280;48008;51.204;6.766;2022-09-20T16:13:59;101890.47;;;15.87;52.68
62051;BME280;48008;51.204;6.766;2022-09-20T16:16:28;101900.66;;;15.83;53.68
62051;BME280;48008;51.204;6.766;2022-09-20T16:18:55;101890.78;;;15.84;52.70
62051;BME280;48008;51.204;6.766;2022-09-20T16:21:43;101893.50;;;15.66;53.36
62051;BME280;48008;51.204;6.766;2022-09-20T16:24:12;101895.66;;;15.62;54.55
62051;BME280;48008;51.204;6.766;2022-09-20T16:26:39;101895.56;;;15.72;54.22
62051;BME280;48008;51.204;6.766;2022-09-20T16:29:06;101896.88;;;15.68;54.13
62051;BME280;48008;51.204;6.766;2022-09-20T16:31:38;101901.38;;;15.67;54.35
62051;BME280;48008;51.204;6.766;2022-09-20T16:34:12;101893.72;;;15.72;54.69
62051;BME280;48008;51.204;6.766;2022-09-20T16:36:40;101902.72;;;15.63;55.20
62051;BME280;48008;51.204;6.766;2022-09-20T16:39:08;101906.66;;;15.51;54.71
62051;BME280;48008;51.204;6.766;2022-09-20T16:41:35;101903.56;;;15.38;55.09
62051;BME280;48008;51.204;6.766;2022-09-20T16:44:02;101907.19;;;15.28;55.28
62051;BME280;48008;51.204;6.766;2022-09-20T16:46:29;101909.00;;;15.28;56.43
62051;BME280;48008;51.204;6.766;2022-09-20T16:48:57;101902.94;;;15.18;55.87
62051;BME280;48008;51.204;6.766;2022-09-20T16:51:31;101910.94;;;15.18;56.50